Portada
METAR-TAF:

METAR-TAF

Aeropuertos :

Nimes, Francia

latitud: 43-45N, longitud: 004-25E, altitud: 94 m

Observación

El informe se hizo hace 28 minutos, a las 16:00 UTC
Viento 3 kt del norte
Temperatura 20°C
Humedad 68%
Presión 1014 hPa
Visibilidad 10 km o más

METAR: LFTW 171600Z AUTO 01003KT 9999 ///TCU 20/14 Q1014 BECMG BKN030

Hora: 18:28 (16:28 UTC)

Pronóstico

El informe se hizo hace 2 horas y 28 minutos, a las 14:00 UTC
Pronóstico válido del 17 a las 15 UTC al 18 a las 15 UTC
Viento 2 kt con dirección variable
Visibilidad 10 km o más
Cielo nuboso a una altura de 3000 ft
Temporalmente
del 17 a las 18 UTC al 18 a las 09 UTC
Viento 15 kt con dirección variable con ráfagas de 25 kt
Visibilidad: 1200 m
Cielo nuboso a una altura de 600 ft
Cielo nuboso a una altura de 1300 ft, Cumulus congestus.
chaparrones de lluvia, neblina

TAF: LFTW 171400Z 1715/1815 VRB02KT 9999 BKN030 TEMPO 1718/1809 VRB15G25KT 1200 SHRA BR BKN006 BKN013TCU

Observaciones y pronósticos meteorológicos de más de 4000 aeropuertos (mensajes METAR y TAF).

Los puntos amarillos y rojos representan las estaciones disponibles.

Ponga el ratón en el punto deseado para ver el nombre de la estación.

Haga clic para ver las observaciones y los pronósticos meteorológicos.

Para cambiar el mapa : haga clic en los botones verdes con una cruz de color negro para hacer un zoom, en el botón verde con un guión para alejar o en las flechas verdes para mapas adyacentes.


METAR-TAF: